Time;durP1;ratioP1;P1;durP2;ratioP2;P2;SDS_P1;SDS_P2;PMS_P1;PMS_P2;Temp;Humidity;BMP_temperature;BMP_pressure;BME280_temperature;BME280_humidity;BME280_pressure;Samples;Min_cycle;Max_cycle;Signal;HPM_P1;HPM_P2
2023/01/09 00:02:05;;;;;;;8.98;4.60;;;;;;;3.43;100.00;99079.88;4999194;28;20030;-75
2023/01/09 00:04:30;;;;;;;8.67;4.80;;;;;;;3.41;100.00;99073.91;5020142;28;20049;-75
2023/01/09 00:06:56;;;;;;;9.80;4.53;;;;;;;3.37;100.00;99066.31;5007139;28;20858;-75
2023/01/09 00:09:23;;;;;;;8.85;4.47;;;;;;;3.26;100.00;99068.41;5007122;28;20042;-75
2023/01/09 00:11:49;;;;;;;7.25;4.20;;;;;;;3.13;100.00;99058.25;5007912;28;20064;-75
2023/01/09 00:14:18;;;;;;;8.25;4.45;;;;;;;3.07;100.00;99058.91;5008552;28;20021;-75
2023/01/09 00:16:44;;;;;;;13.95;5.57;;;;;;;2.95;100.00;99040.72;5006841;28;20034;-75
2023/01/09 00:19:09;;;;;;;10.20;5.63;;;;;;;2.86;100.00;99036.38;5006942;28;20060;-75
2023/01/09 00:21:35;;;;;;;10.40;4.75;;;;;;;2.78;100.00;99038.94;4993320;28;20072;-74
2023/01/09 00:24:01;;;;;;;9.65;4.72;;;;;;;2.74;100.00;99027.06;5008374;28;20475;-75
2023/01/09 00:26:26;;;;;;;12.40;5.60;;;;;;;2.72;100.00;99031.66;5007590;28;20026;-75
2023/01/09 00:28:53;;;;;;;9.40;5.13;;;;;;;2.73;100.00;99028.03;5006770;28;20041;-75
2023/01/09 00:31:19;;;;;;;8.48;4.47;;;;;;;2.96;100.00;99031.81;4989743;28;20292;-75
2023/01/09 00:33:49;;;;;;;7.82;4.25;;;;;;;3.03;100.00;99047.00;4983747;28;20038;-75
2023/01/09 00:36:14;;;;;;;7.05;4.03;;;;;;;3.15;100.00;99053.66;4991017;28;20084;-75
2023/01/09 00:38:40;;;;;;;10.63;4.97;;;;;;;3.31;100.00;99056.38;5006021;28;20034;-75
2023/01/09 00:41:09;;;;;;;7.43;4.85;;;;;;;3.60;100.00;99057.84;5006092;28;20026;-74
2023/01/09 00:43:41;;;;;;;5.32;3.65;;;;;;;3.52;100.00;99045.44;5006705;28;20076;-75
2023/01/09 00:46:07;;;;;;;7.20;4.57;;;;;;;3.65;100.00;99058.19;5007695;28;20068;-75
2023/01/09 00:48:36;;;;;;;9.68;5.00;;;;;;;3.69;100.00;99056.88;4993508;28;20084;-74
2023/01/09 00:51:01;;;;;;;6.63;4.60;;;;;;;3.77;100.00;99053.47;5007707;28;20044;-75
2023/01/09 00:53:31;;;;;;;7.90;4.70;;;;;;;3.76;100.00;99046.50;4999442;28;20018;-75
2023/01/09 00:55:59;;;;;;;8.77;5.05;;;;;;;3.90;100.00;99042.44;5006443;28;20056;-75
2023/01/09 00:58:24;;;;;;;6.55;3.97;;;;;;;3.82;100.00;99032.69;4986247;28;20082;-75
2023/01/09 01:00:49;;;;;;;6.97;3.78;;;;;;;3.80;100.00;99032.84;5008301;28;20442;-75
2023/01/09 01:03:15;;;;;;;5.97;3.77;;;;;;;3.75;100.00;99026.41;5007435;28;20033;-75
2023/01/09 01:08:24;;;;;;;9.27;5.50;;;;;;;3.67;100.00;99016.63;5005842;28;20033;-75
2023/01/09 01:10:50;;;;;;;6.83;4.40;;;;;;;3.66;100.00;99007.06;5006934;28;20041;-75
2023/01/09 01:13:15;;;;;;;9.80;4.85;;;;;;;3.67;100.00;99008.69;5005867;28;20034;-75
2023/01/09 01:15:43;;;;;;;9.43;5.60;;;;;;;3.66;100.00;99009.69;5008522;28;20042;-75
2023/01/09 01:18:10;;;;;;;9.00;5.63;;;;;;;3.58;100.00;99007.03;4999873;28;20535;-75
2023/01/09 01:20:35;;;;;;;6.80;4.18;;;;;;;3.52;100.00;99011.13;4989102;28;20037;-75
2023/01/09 01:23:01;;;;;;;8.75;5.25;;;;;;;3.33;100.00;99001.66;5006042;28;20038;-75
2023/01/09 01:25:26;;;;;;;9.13;5.03;;;;;;;3.34;100.00;99008.59;4988820;28;20076;-75
2023/01/09 01:27:51;;;;;;;11.03;5.57;;;;;;;3.44;100.00;99019.03;5006939;28;20041;-75
2023/01/09 01:30:18;;;;;;;9.23;5.80;;;;;;;3.56;100.00;99027.50;5005688;28;20310;-75
2023/01/09 01:32:43;;;;;;;;;;;;;;;3.65;100.00;99026.50;5007307;28;20479;-74
2023/01/09 01:35:10;;;;;;;9.32;5.70;;;;;;;3.59;100.00;99027.16;5005403;28;19920;-74
2023/01/09 01:37:36;;;;;;;10.10;5.75;;;;;;;3.64;100.00;99024.88;4989464;28;20113;-75
2023/01/09 01:40:04;;;;;;;11.20;6.45;;;;;;;3.64;100.00;99029.31;5005587;28;20085;-75
2023/01/09 01:42:30;;;;;;;9.13;5.35;;;;;;;3.63;100.00;99019.75;5005559;28;20380;-75
2023/01/09 01:44:58;;;;;;;8.98;5.75;;;;;;;3.64;100.00;99024.88;4989230;28;20034;-75
2023/01/09 01:47:31;;;;;;;8.40;5.47;;;;;;;3.76;100.00;99013.03;5005241;28;20442;-75
2023/01/09 01:49:58;;;;;;;10.80;6.25;;;;;;;3.76;100.00;99010.38;5005805;28;20096;-75
2023/01/09 01:52:24;;;;;;;11.48;5.47;;;;;;;3.88;100.00;99012.72;5005076;28;20026;-75
2023/01/09 01:54:50;;;;;;;9.27;5.35;;;;;;;3.84;100.00;99000.81;5006976;28;20080;-75
2023/01/09 01:57:15;;;;;;;14.77;7.07;;;;;;;3.81;100.00;98988.78;4989215;28;20048;-75
2023/01/09 01:59:51;;;;;;;10.80;5.00;;;;;;;3.87;100.00;99003.16;5005614;28;20042;-75
2023/01/09 02:02:20;;;;;;;8.82;5.15;;;;;;;3.83;100.00;98997.38;5000906;28;20159;-75
2023/01/09 02:04:47;;;;;;;10.02;5.13;;;;;;;3.86;100.00;98990.94;5004997;28;20371;-75
2023/01/09 02:07:12;;;;;;;6.90;4.53;;;;;;;3.90;100.00;98989.63;4988251;28;20037;-75
2023/01/09 02:09:40;;;;;;;11.17;5.03;;;;;;;3.96;100.00;98981.06;4989104;28;20038;-74
2023/01/09 02:12:25;;;;;;;14.27;6.15;;;;;;;3.92;100.00;98985.84;5004805;28;20319;-75
2023/01/09 02:15:04;;;;;;;;;;;;;;;3.96;100.00;98989.81;5006716;28;20044;-75
2023/01/09 02:17:57;;;;;;;11.35;5.68;;;;;;;4.02;100.00;98988.31;5005495;28;19967;-76
2023/01/09 02:20:37;;;;;;;8.55;4.90;;;;;;;3.99;100.00;98975.44;5006227;28;20148;-75
2023/01/09 02:23:18;;;;;;;12.32;6.35;;;;;;;4.01;100.00;98978.75;5006739;28;21023;-75
2023/01/09 02:26:05;;;;;;;15.32;6.07;;;;;;;3.97;100.00;98966.88;5014726;28;20052;-75
2023/01/09 02:29:08;;;;;;;7.78;4.70;;;;;;;3.97;100.00;98966.88;5026104;28;20657;-75
2023/01/09 02:31:39;;;;;;;10.05;5.72;;;;;;;3.94;100.00;98954.00;5003057;28;20425;-76
2023/01/09 02:34:23;;;;;;;9.00;5.13;;;;;;;3.95;100.00;98953.00;5006219;28;20500;-75
2023/01/09 02:36:59;;;;;;;7.32;4.95;;;;;;;3.98;100.00;98956.16;4988649;28;20108;-75
2023/01/09 02:39:43;;;;;;;9.70;5.63;;;;;;;4.07;100.00;98951.66;5012313;28;20531;-75
2023/01/09 02:42:16;;;;;;;13.68;6.05;;;;;;;4.09;100.00;98948.88;4998588;28;20030;-75
2023/01/09 02:44:43;;;;;;;12.73;6.32;;;;;;;4.12;100.00;98943.25;5005080;28;20502;-74
2023/01/09 02:47:14;;;;;;;13.98;6.18;;;;;;;4.19;100.00;98945.09;4988236;28;20390;-75
2023/01/09 02:49:42;;;;;;;9.48;5.43;;;;;;;4.17;100.00;98939.16;4988733;28;20398;-75
2023/01/09 02:52:28;;;;;;;7.72;4.57;;;;;;;4.22;100.00;98936.00;5017605;28;20116;-75
2023/01/09 02:54:53;;;;;;;;;;;;;;;4.26;100.00;98945.25;5007313;28;20044;-75
2023/01/09 02:57:55;;;;;;;9.13;4.60;;;;;;;4.23;100.00;98937.66;4998675;28;19913;-75
2023/01/09 03:00:30;;;;;;;12.07;6.05;;;;;;;4.30;100.00;98935.16;4997371;28;20041;-75
2023/01/09 03:03:09;;;;;;;11.23;5.50;;;;;;;4.32;100.00;98927.91;4997249;28;20033;-75
2023/01/09 03:06:24;;;;;;;12.07;6.57;;;;;;;4.34;100.00;98926.75;5012234;28;20058;-75
2023/01/09 03:09:01;;;;;;;22.50;8.98;;;;;;;4.37;100.00;98922.94;5005615;28;20128;-75
2023/01/09 03:11:34;;;;;;;8.93;6.03;;;;;;;4.44;100.00;98924.75;5004584;28;20030;-75
2023/01/09 03:14:07;;;;;;;11.23;6.85;;;;;;;4.41;100.00;98918.97;5003926;28;20033;-75
2023/01/09 03:16:36;;;;;;;7.75;4.88;;;;;;;4.40;100.00;98910.25;5007606;28;20565;-75
2023/01/09 03:19:06;;;;;;;10.85;5.75;;;;;;;4.46;100.00;98919.28;5007875;28;20033;-75
2023/01/09 03:21:33;;;;;;;6.57;5.15;;;;;;;4.46;100.00;98918.47;5008995;28;20791;-75
2023/01/09 03:24:01;;;;;;;7.00;4.10;;;;;;;4.37;100.00;98896.53;5007822;28;20038;-75
2023/01/09 03:26:28;;;;;;;7.43;4.32;;;;;;;4.47;100.00;98906.91;4991586;28;20541;-75
2023/01/09 03:28:54;;;;;;;9.23;4.45;;;;;;;4.45;100.00;98896.53;5008615;28;20140;-74
2023/01/09 03:31:19;;;;;;;5.97;4.47;;;;;;;4.45;100.00;98891.25;4991347;28;20033;-75
2023/01/09 03:33:45;;;;;;;6.07;4.07;;;;;;;4.49;100.00;98900.44;5007753;28;20466;-75
2023/01/09 03:36:12;;;;;;;10.77;5.35;;;;;;;4.53;100.00;98904.41;5007374;28;20368;-74
2023/01/09 03:38:37;;;;;;;8.00;4.85;;;;;;;4.44;100.00;98897.50;5009107;28;20045;-75
2023/01/09 03:41:03;;;;;;;8.87;5.47;;;;;;;4.45;100.00;98893.88;5007253;28;20030;-75
2023/01/09 03:43:28;;;;;;;9.80;4.88;;;;;;;4.55;100.00;98893.69;5007929;28;20288;-74
2023/01/09 03:45:54;;;;;;;9.23;5.47;;;;;;;4.52;100.00;98894.00;5006970;28;20021;-75
2023/01/09 03:48:19;;;;;;;9.27;4.60;;;;;;;4.47;100.00;98880.47;5008970;28;20569;-75
2023/01/09 03:50:47;;;;;;;8.23;4.90;;;;;;;4.52;100.00;98881.63;5016585;28;20049;-74
2023/01/09 03:53:13;;;;;;;9.73;5.57;;;;;;;4.47;100.00;98878.66;5007257;28;20087;-75
2023/01/09 03:55:42;;;;;;;8.37;4.97;;;;;;;4.51;100.00;98877.34;5008107;28;20033;-75
2023/01/09 03:58:07;;;;;;;7.95;5.53;;;;;;;4.52;100.00;98868.44;5008893;28;20372;-75
2023/01/09 04:00:32;;;;;;;7.97;4.90;;;;;;;4.47;100.00;98878.66;4990524;28;20121;-75
2023/01/09 04:02:58;;;;;;;6.37;4.80;;;;;;;4.50;100.00;98878.34;5006574;28;20076;-75
2023/01/09 04:05:23;;;;;;;8.43;4.90;;;;;;;4.54;100.00;98887.59;5008330;28;20038;-75
2023/01/09 04:07:49;;;;;;;7.93;6.00;;;;;;;4.49;100.00;98876.66;5006643;28;20102;-75
2023/01/09 04:10:14;;;;;;;8.20;5.47;;;;;;;4.44;100.00;98869.25;5007139;28;20081;-75
2023/01/09 04:12:40;;;;;;;8.10;5.75;;;;;;;4.47;100.00;98877.84;5001588;28;20313;-75
2023/01/09 04:15:05;;;;;;;10.63;4.97;;;;;;;4.45;100.00;98875.38;5010218;28;20041;-75
2023/01/09 04:17:31;;;;;;;11.27;5.18;;;;;;;4.36;100.00;98866.63;5025993;28;20025;-75
2023/01/09 04:19:57;;;;;;;6.50;4.70;;;;;;;4.47;100.00;98873.38;5007275;28;20036;-76
2023/01/09 04:22:24;;;;;;;7.25;4.95;;;;;;;4.49;100.00;98876.66;5004585;28;20062;-75
2023/01/09 04:24:49;;;;;;;7.32;4.80;;;;;;;4.45;100.00;98878.03;4989876;28;20037;-75
2023/01/09 04:27:14;;;;;;;10.70;5.57;;;;;;;4.50;100.00;98878.34;5002622;28;20092;-77
2023/01/09 04:29:40;;;;;;;10.93;5.17;;;;;;;4.49;100.00;98873.22;4986828;28;20714;-75
2023/01/09 04:32:05;;;;;;;10.67;4.90;;;;;;;4.50;100.00;98874.88;4999899;28;20497;-75
2023/01/09 04:34:30;;;;;;;6.80;5.03;;;;;;;4.55;100.00;98883.13;5006698;28;20045;-74
2023/01/09 04:36:56;;;;;;;9.70;5.60;;;;;;;4.45;100.00;98867.44;5010195;28;20033;-75
2023/01/09 04:39:21;;;;;;;8.65;5.28;;;;;;;4.51;100.00;98887.91;5023641;28;20087;-75
2023/01/09 04:41:50;;;;;;;8.23;5.00;;;;;;;4.53;100.00;98875.34;5019984;28;20068;-74
2023/01/09 04:44:21;;;;;;;7.45;4.95;;;;;;;4.56;100.00;98893.50;4990848;28;20284;-76
2023/01/09 04:46:47;;;;;;;7.30;4.80;;;;;;;4.58;100.00;98896.81;5007734;28;20034;-76
2023/01/09 04:49:13;;;;;;;9.05;4.82;;;;;;;4.53;100.00;98888.56;5017254;28;20450;-76
2023/01/09 04:51:39;;;;;;;8.93;4.72;;;;;;;4.57;100.00;98889.88;5001492;28;20048;-77
2023/01/09 04:54:04;;;;;;;7.53;5.25;;;;;;;4.59;100.00;98885.25;5009668;28;20041;-78
2023/01/09 04:56:30;;;;;;;10.90;5.37;;;;;;;4.55;100.00;98883.94;5008912;28;20030;-77
2023/01/09 04:58:55;;;;;;;9.23;5.13;;;;;;;4.45;100.00;98883.31;5018734;28;20029;-76
2023/01/09 05:01:21;;;;;;;10.23;4.78;;;;;;;4.42;100.00;98880.97;4992855;28;20199;-76
2023/01/09 05:03:46;;;;;;;10.90;5.28;;;;;;;4.42;100.00;98894.19;5019363;28;20037;-76
2023/01/09 05:06:11;;;;;;;9.33;5.33;;;;;;;4.40;100.00;98899.66;5005826;28;20029;-77
2023/01/09 05:08:37;;;;;;;8.83;5.50;;;;;;;4.43;100.00;98894.03;5020755;28;20052;-77
2023/01/09 05:11:02;;;;;;;10.30;6.40;;;;;;;4.43;100.00;98901.97;5008476;28;20268;-77
2023/01/09 05:13:28;;;;;;;7.85;5.03;;;;;;;4.46;100.00;98898.16;5016550;28;20037;-76
2023/01/09 05:15:53;;;;;;;10.57;5.23;;;;;;;4.46;100.00;98890.22;5018131;28;20132;-76
2023/01/09 05:18:19;;;;;;;9.47;5.23;;;;;;;4.43;100.00;98885.28;5006406;28;20946;-76
2023/01/09 05:20:44;;;;;;;9.80;5.23;;;;;;;4.46;100.00;98892.88;5027226;28;20303;-77
2023/01/09 05:23:09;;;;;;;9.07;5.23;;;;;;;4.56;100.00;98905.91;5018005;28;20083;-77
2023/01/09 05:25:35;;;;;;;7.70;4.83;;;;;;;4.48;100.00;98896.19;5009856;28;20033;-77
2023/01/09 05:28:00;;;;;;;9.87;5.77;;;;;;;4.54;100.00;98898.16;5021873;28;20092;-76
2023/01/09 05:30:26;;;;;;;7.33;5.20;;;;;;;4.49;100.00;98897.81;5006290;28;20041;-77
2023/01/09 05:32:51;;;;;;;12.77;5.57;;;;;;;4.56;100.00;98898.78;5009849;28;20042;-76
2023/01/09 05:35:17;;;;;;;8.60;4.80;;;;;;;4.58;100.00;98896.81;5002902;28;20024;-77
2023/01/09 05:37:42;;;;;;;9.97;5.87;;;;;;;4.68;100.00;98896.59;5003075;28;20089;-76
2023/01/09 05:40:08;;;;;;;11.00;5.27;;;;;;;4.61;100.00;98891.19;4986144;28;20034;-76
2023/01/09 05:42:33;;;;;;;8.55;5.35;;;;;;;4.58;100.00;98888.06;4995134;28;20277;-76
2023/01/09 05:44:59;;;;;;;9.17;5.70;;;;;;;4.63;100.00;98898.94;5005310;28;20037;-76
2023/01/09 05:47:24;;;;;;;6.90;4.80;;;;;;;4.68;100.00;98891.31;5005917;28;20284;-76
2023/01/09 05:49:49;;;;;;;7.67;5.27;;;;;;;4.68;100.00;98895.78;5006445;28;20041;-75
2023/01/09 05:52:15;;;;;;;11.47;5.97;;;;;;;4.64;100.00;98895.31;4995767;28;20057;-77
2023/01/09 05:54:40;;;;;;;7.93;5.60;;;;;;;4.70;100.00;98894.63;5007941;28;20483;-76
2023/01/09 05:57:05;;;;;;;8.37;5.37;;;;;;;4.60;100.00;98881.59;4989114;28;20030;-76
2023/01/09 05:59:31;;;;;;;6.90;4.67;;;;;;;4.68;100.00;98890.50;5006099;28;20042;-76
2023/01/09 06:01:56;;;;;;;10.20;5.37;;;;;;;4.64;100.00;98885.56;5005010;28;20026;-76
2023/01/09 06:04:21;;;;;;;8.00;5.27;;;;;;;4.68;100.00;98895.78;5007413;28;20025;-76
2023/01/09 06:06:47;;;;;;;9.53;5.40;;;;;;;4.69;100.00;98895.63;4989742;28;20206;-76
2023/01/09 06:09:12;;;;;;;10.15;5.97;;;;;;;4.72;100.00;98897.09;5021334;28;20036;-77
2023/01/09 06:11:38;;;;;;;9.87;6.17;;;;;;;4.81;100.00;98901.38;5007952;28;20457;-77
2023/01/09 06:14:06;;;;;;;11.17;5.57;;;;;;;4.75;100.00;98907.34;5007054;28;20561;-76
2023/01/09 06:16:31;;;;;;;15.43;7.30;;;;;;;4.85;100.00;98903.50;5005774;28;20034;-78
2023/01/09 06:18:57;;;;;;;15.30;6.27;;;;;;;4.89;100.00;98909.25;5005575;28;20096;-76
2023/01/09 06:21:22;;;;;;;9.53;5.67;;;;;;;4.78;100.00;98901.72;5006132;28;20284;-77
2023/01/09 06:23:48;;;;;;;8.50;5.87;;;;;;;4.77;100.00;98900.88;5000002;28;20027;-77
2023/01/09 06:26:13;;;;;;;12.77;7.40;;;;;;;4.85;100.00;98915.91;4989571;28;20087;-77
2023/01/09 06:28:38;;;;;;;10.23;6.60;;;;;;;4.82;100.00;98916.22;5005301;28;20295;-77
2023/01/09 06:31:04;;;;;;;9.57;6.57;;;;;;;4.82;100.00;98916.22;5005620;28;20045;-77
2023/01/09 06:33:30;;;;;;;10.77;6.75;;;;;;;4.92;100.00;98927.44;5006218;28;20061;-77
2023/01/09 06:35:56;;;;;;;8.82;5.40;;;;;;;4.90;100.00;98916.22;5005484;28;20049;-78
2023/01/09 06:38:21;;;;;;;9.67;5.63;;;;;;;4.92;100.00;98914.22;5007758;28;20061;-78
2023/01/09 06:40:47;;;;;;;12.93;6.43;;;;;;;4.95;100.00;98924.47;4997139;28;20041;-80
2023/01/09 06:43:13;;;;;;;10.05;5.88;;;;;;;4.96;100.00;98922.63;5007754;28;20129;-78
2023/01/09 06:45:38;;;;;;;11.45;6.60;;;;;;;4.93;100.00;98917.69;5006060;28;20042;-76
2023/01/09 06:48:03;;;;;;;13.47;6.83;;;;;;;4.89;100.00;98925.13;4996842;28;20961;-78
2023/01/09 06:50:29;;;;;;;13.93;7.50;;;;;;;4.92;100.00;98924.00;5005804;28;20792;-77
2023/01/09 06:52:54;;;;;;;11.23;7.00;;;;;;;4.85;100.00;98911.44;5009415;28;20509;-78
2023/01/09 06:55:20;;;;;;;10.10;7.10;;;;;;;4.96;100.00;98923.44;5010812;28;20125;-78
2023/01/09 06:57:46;;;;;;;12.75;6.82;;;;;;;4.98;100.00;98929.41;5010313;28;20025;-77
2023/01/09 07:00:12;;;;;;;14.32;7.47;;;;;;;4.88;100.00;98917.38;5011921;28;20134;-76
2023/01/09 07:02:37;;;;;;;10.77;6.13;;;;;;;4.91;100.00;98928.44;5007641;28;20034;-76
2023/01/09 07:05:06;;;;;;;14.30;6.20;;;;;;;4.95;100.00;98929.75;4999339;28;20666;-76
2023/01/09 07:07:31;;;;;;;8.73;6.38;;;;;;;4.86;100.00;98930.75;5005821;28;20065;-76
2023/01/09 07:09:57;;;;;;;9.15;5.80;;;;;;;4.88;100.00;98926.13;4991856;28;20699;-77
2023/01/09 07:12:22;;;;;;;9.80;5.03;;;;;;;4.89;100.00;98934.88;5008996;28;20029;-76
2023/01/09 07:14:47;;;;;;;8.50;4.87;;;;;;;4.85;100.00;98932.59;5007778;28;20034;-77
2023/01/09 07:17:13;;;;;;;8.20;4.57;;;;;;;4.95;100.00;98942.97;4991862;28;20768;-76
2023/01/09 07:19:38;;;;;;;9.18;5.32;;;;;;;4.93;100.00;98941.50;5007365;28;20034;-77
2023/01/09 07:22:04;;;;;;;8.53;5.17;;;;;;;4.91;100.00;98946.13;5007847;28;20045;-76
2023/01/09 07:24:29;;;;;;;8.17;4.23;;;;;;;4.86;100.00;98944.00;4991070;28;20038;-76
2023/01/09 07:26:54;;;;;;;6.13;3.43;;;;;;;4.74;100.00;98942.72;4991159;28;20045;-74
2023/01/09 07:29:19;;;;;;;3.93;2.97;;;;;;;4.78;100.00;98938.75;5007858;28;20038;-75
2023/01/09 07:31:45;;;;;;;5.47;4.03;;;;;;;4.77;100.00;98943.19;5025566;28;20144;-76
2023/01/09 07:34:11;;;;;;;3.97;2.78;;;;;;;4.81;100.00;98963.00;5028841;28;20053;-76
2023/01/09 07:36:36;;;;;;;3.85;3.10;;;;;;;4.78;100.00;98952.78;4999077;28;20053;-75
2023/01/09 07:39:01;;;;;;;5.07;3.73;;;;;;;4.72;100.00;98950.78;5020154;28;20037;-75
2023/01/09 07:41:27;;;;;;;4.63;3.17;;;;;;;4.72;100.00;98945.50;5024226;28;20041;-75
2023/01/09 07:43:52;;;;;;;2.20;1.77;;;;;;;4.63;100.00;98947.34;5007667;28;20383;-75
2023/01/09 07:46:18;;;;;;;2.47;1.90;;;;;;;4.53;100.00;98930.84;5008254;28;20033;-75
2023/01/09 07:48:43;;;;;;;2.27;1.30;;;;;;;4.52;100.00;98921.28;5007123;28;20042;-73
2023/01/09 07:51:09;;;;;;;2.67;2.07;;;;;;;4.49;100.00;98913.66;5003963;28;20365;-75
2023/01/09 07:53:34;;;;;;;4.22;2.20;;;;;;;4.50;100.00;98915.34;5017974;28;20038;-75
2023/01/09 07:56:00;;;;;;;4.15;1.73;;;;;;;4.50;100.00;98917.16;5019422;28;20043;-76
2023/01/09 07:58:25;;;;;;;2.47;1.70;;;;;;;4.46;100.00;98931.69;5028117;28;20509;-76
2023/01/09 08:00:50;;;;;;;2.43;2.17;;;;;;;4.42;100.00;98929.41;4991561;28;20401;-75
2023/01/09 08:03:16;;;;;;;2.03;1.60;;;;;;;4.36;100.00;98922.13;5006116;28;20045;-75
2023/01/09 08:05:41;;;;;;;3.73;1.77;;;;;;;4.48;100.00;98938.47;5007120;28;20526;-75
2023/01/09 08:08:06;;;;;;;2.37;1.40;;;;;;;4.50;100.00;98939.13;5008069;28;20018;-76
2023/01/09 08:10:32;;;;;;;2.13;1.60;;;;;;;4.57;100.00;98953.31;5006767;28;20129;-74
2023/01/09 08:12:57;;;;;;;5.60;2.13;;;;;;;4.56;100.00;98948.19;5011791;28;20033;-76
2023/01/09 08:15:22;;;;;;;4.17;2.70;;;;;;;4.63;100.00;98960.56;4991911;28;20031;-75
2023/01/09 08:17:47;;;;;;;3.10;2.40;;;;;;;4.61;100.00;98965.22;5006994;28;20422;-75
2023/01/09 08:20:15;;;;;;;6.67;3.20;;;;;;;4.62;100.00;98972.13;5006286;28;20911;-76
2023/01/09 08:22:41;;;;;;;6.50;3.55;;;;;;;4.55;100.00;98965.03;5007762;28;20040;-75
2023/01/09 08:25:07;;;;;;;4.18;3.08;;;;;;;4.56;100.00;98978.06;5006413;28;20030;-75
2023/01/09 08:27:33;;;;;;;4.70;3.25;;;;;;;4.57;100.00;98979.75;5006694;28;20376;-75
2023/01/09 08:29:58;;;;;;;5.00;3.03;;;;;;;4.58;100.00;98978.75;5006371;28;20033;-75
2023/01/09 08:32:24;;;;;;;4.40;2.87;;;;;;;4.61;100.00;98983.72;5007565;28;20033;-75
2023/01/09 08:34:50;;;;;;;4.60;3.10;;;;;;;4.64;100.00;98980.72;5006262;28;20029;-76
2023/01/09 08:37:15;;;;;;;5.05;2.88;;;;;;;4.65;100.00;98981.53;5006985;28;20034;-75
2023/01/09 08:39:41;;;;;;;5.17;2.90;;;;;;;4.63;100.00;98973.75;5007562;28;20041;-75
2023/01/09 08:47:35;;;;;;;4.28;2.58;;;;;;;4.70;100.00;98989.78;5009302;28;20452;-74
2023/01/09 08:50:01;;;;;;;;;;;;;;;4.71;100.00;98988.81;5006915;28;20033;-76
2023/01/09 08:52:28;;;;;;;6.32;2.60;;;;;;;4.77;100.00;98988.13;5007109;28;19913;-76
2023/01/09 08:54:54;;;;;;;4.35;2.50;;;;;;;4.73;100.00;98988.63;5005918;28;20108;-75
2023/01/09 08:57:19;;;;;;;3.80;2.27;;;;;;;4.76;100.00;98990.97;5005964;28;20034;-76
2023/01/09 08:59:44;;;;;;;4.10;2.63;;;;;;;4.83;100.00;98989.28;5009498;28;20113;-74
2023/01/09 09:02:10;;;;;;;2.23;1.80;;;;;;;4.87;100.00;98985.31;5005373;28;20034;-76
2023/01/09 09:04:35;;;;;;;3.80;2.43;;;;;;;4.82;100.00;98990.25;5005715;28;20030;-75
2023/01/09 09:07:00;;;;;;;4.70;2.10;;;;;;;4.78;100.00;98981.84;5006030;28;20038;-75
2023/01/09 09:09:26;;;;;;;4.53;2.60;;;;;;;5.02;100.00;98998.66;4989944;28;20040;-75
2023/01/09 09:11:52;;;;;;;4.22;2.35;;;;;;;5.02;100.00;98998.66;5006641;28;20430;-75
2023/01/09 09:17:02;;;;;;;5.72;2.67;;;;;;;5.41;100.00;99003.19;5007496;28;20057;-76
2023/01/09 09:19:27;;;;;;;4.38;2.78;;;;;;;5.54;100.00;99007.91;4988952;28;20119;-76
2023/01/09 09:21:53;;;;;;;4.40;3.10;;;;;;;5.39;100.00;99000.69;4989485;28;20034;-76
2023/01/09 09:24:18;;;;;;;4.63;2.53;;;;;;;5.39;100.00;98995.41;5017129;28;20018;-76
2023/01/09 09:26:43;;;;;;;4.43;2.80;;;;;;;5.27;100.00;98999.41;5006815;28;20046;-75
2023/01/09 09:29:09;;;;;;;7.47;3.10;;;;;;;5.38;100.00;99009.59;4985030;28;20296;-75
2023/01/09 09:31:37;;;;;;;5.50;3.43;;;;;;;5.29;100.00;99010.63;4992673;28;20085;-74
2023/01/09 09:34:03;;;;;;;10.90;4.68;;;;;;;5.35;100.00;99012.59;4975168;28;20034;-76
2023/01/09 09:36:29;;;;;;;6.40;4.43;;;;;;;6.04;100.00;99020.75;4996336;28;20026;-75
2023/01/09 09:38:54;;;;;;;6.77;4.40;;;;;;;6.46;100.00;99023.91;5005520;28;20457;-74
2023/01/09 09:44:42;;;;;;;7.80;5.03;;;;;;;6.04;100.00;98998.69;5006500;28;20030;-75
2023/01/09 09:47:20;;;;;;;9.23;5.18;;;;;;;6.45;100.00;99001.06;5013232;28;20162;-75
2023/01/09 09:50:04;;;;;;;10.18;4.97;;;;;;;6.42;100.00;98996.13;5007292;28;20095;-75
2023/01/09 09:52:42;;;;;;;8.43;5.03;;;;;;;6.59;100.00;98994.16;5001261;28;20403;-75
2023/01/09 09:55:23;;;;;;;10.65;6.10;;;;;;;7.14;100.00;98998.22;4996724;28;20035;-75
2023/01/09 09:57:50;;;;;;;6.30;4.30;;;;;;;7.67;100.00;98984.81;4981671;28;20525;-75
2023/01/09 10:00:20;;;;;;;11.65;6.03;;;;;;;8.40;100.00;98986.41;5005926;28;20025;-74
2023/01/09 10:02:50;;;;;;;8.75;5.22;;;;;;;8.43;100.00;98935.50;4997083;28;20655;-75
2023/01/09 10:05:26;;;;;;;9.90;5.30;;;;;;;8.76;100.00;98913.63;4995140;28;20392;-75
2023/01/09 10:07:52;;;;;;;11.35;5.22;;;;;;;8.13;100.00;98856.91;4999174;28;20042;-75
2023/01/09 10:10:20;;;;;;;;;;;;;;;7.54;100.00;98829.63;5005618;28;20503;-75
2023/01/09 10:12:53;;;;;;;8.75;4.68;;;;;;;7.30;100.00;98845.91;5005195;28;19992;-76
2023/01/09 10:15:32;;;;;;;14.10;5.95;;;;;;;7.07;100.00;98867.28;4998393;28;20144;-77
2023/01/09 10:18:08;;;;;;;9.73;5.40;;;;;;;7.12;100.00;98872.88;5010552;28;20562;-76
2023/01/09 10:20:55;;;;;;;10.85;5.22;;;;;;;6.84;100.00;98875.38;4996507;28;20038;-75
2023/01/09 10:24:04;;;;;;;11.13;6.63;;;;;;;7.25;100.00;98927.94;4980478;28;20121;-76
2023/01/09 10:26:40;;;;;;;12.43;5.00;;;;;;;8.10;100.00;98939.69;5002165;28;20036;-76
2023/01/09 10:29:21;;;;;;;9.23;5.38;;;;;;;8.19;100.00;98882.72;5005796;28;20034;-77
2023/01/09 10:32:05;;;;;;;10.07;6.22;;;;;;;8.72;100.00;98840.53;4995736;28;20073;-76
2023/01/09 10:35:05;;;;;;;12.10;5.43;;;;;;;8.91;100.00;98753.81;4977043;28;20034;-76
2023/01/09 10:37:36;;;;;;;12.23;4.43;;;;;;;9.03;100.00;98669.69;5000286;28;20038;-77
2023/01/09 10:40:12;;;;;;;10.07;5.10;;;;;;;9.37;100.00;98635.13;5002425;28;20052;-77
2023/01/09 10:43:14;;;;;;;11.43;5.15;;;;;;;8.66;100.00;98517.63;5008349;28;20041;-76
2023/01/09 10:45:49;;;;;;;9.18;5.20;;;;;;;8.81;100.00;98552.00;5001296;28;20065;-76
2023/01/09 10:48:28;;;;;;;9.07;4.82;;;;;;;9.46;100.00;98576.09;4989075;28;20038;-77
2023/01/09 10:50:55;;;;;;;12.80;6.05;;;;;;;9.45;100.00;98461.75;5002010;28;20349;-76
2023/01/09 10:53:42;;;;;;;16.75;5.28;;;;;;;8.88;100.00;98389.69;5012265;28;20050;-76
2023/01/09 10:56:17;;;;;;;14.98;6.30;;;;;;;7.65;100.00;98376.78;4992984;28;20033;-77
2023/01/09 10:58:43;;;;;;;12.02;5.55;;;;;;;7.48;100.00;98519.72;5013535;28;20037;-76
2023/01/09 11:01:09;;;;;;;15.13;5.65;;;;;;;7.32;100.00;98627.03;4977008;28;20034;-77
2023/01/09 11:03:34;;;;;;;10.43;5.22;;;;;;;7.83;100.00;98697.66;4995638;28;20101;-76
2023/01/09 11:06:02;;;;;;;12.40;4.88;;;;;;;7.42;100.00;98663.88;4997955;28;20124;-77
2023/01/09 11:08:40;;;;;;;12.38;5.53;;;;;;;7.36;100.00;98689.34;4996329;28;20126;-76
2023/01/09 11:11:07;;;;;;;15.95;6.18;;;;;;;7.32;100.00;98680.13;5009148;28;20037;-76
2023/01/09 11:13:35;;;;;;;11.98;5.60;;;;;;;7.46;100.00;98712.91;5004421;28;20046;-76
2023/01/09 11:16:06;;;;;;;12.25;5.82;;;;;;;7.33;100.00;98710.19;5001134;28;20018;-76
2023/01/09 11:18:52;;;;;;;10.95;4.80;;;;;;;7.03;100.00;98750.09;4993965;28;20106;-76
2023/01/09 11:21:27;;;;;;;10.65;6.20;;;;;;;6.84;100.00;98807.25;5000033;28;20381;-76
2023/01/09 11:23:53;;;;;;;10.40;5.90;;;;;;;6.66;100.00;98836.78;4994540;28;20041;-76
2023/01/09 11:26:25;;;;;;;;;;;;;;;6.64;100.00;98856.53;4993238;28;20022;-77
2023/01/09 11:29:10;;;;;;;12.88;5.78;;;;;;;6.46;100.00;98883.41;4994803;28;20028;-76
2023/01/09 11:31:36;;;;;;;12.43;5.63;;;;;;;6.39;100.00;98901.88;5012878;28;20038;-76
2023/01/09 11:34:02;;;;;;;10.05;4.97;;;;;;;6.40;100.00;98914.13;4993278;28;20030;-76
2023/01/09 11:36:29;;;;;;;14.93;5.75;;;;;;;6.12;100.00;98901.44;5013647;28;20038;-76
2023/01/09 11:38:57;;;;;;;12.18;6.25;;;;;;;6.28;100.00;98952.66;4994686;28;20030;-78
2023/01/09 11:41:34;;;;;;;13.43;5.47;;;;;;;6.31;100.00;98969.03;5010614;28;20041;-77
2023/01/09 11:44:03;;;;;;;16.52;6.00;;;;;;;6.33;100.00;98982.09;5007657;28;20120;-75
2023/01/09 11:46:32;;;;;;;15.95;6.82;;;;;;;6.32;100.00;98981.28;4995872;28;20022;-75
2023/01/09 11:49:00;;;;;;;19.15;7.78;;;;;;;6.29;100.00;98989.56;5001072;28;20056;-75
2023/01/09 11:51:28;;;;;;;13.95;6.68;;;;;;;6.16;100.00;98981.41;5001211;28;20037;-75
2023/01/09 11:54:15;;;;;;;18.98;8.32;;;;;;;6.14;100.00;98999.31;5016066;28;20104;-75